Sanar-5 — UBPI4 — position and weather

sailwx.info

Track history (hours):
 
Tides and Currents Weather Stations Pressure Air Temp Water Temp Dewpoint Dewpoint Depression Visibility Wind Speed Wind Dir Waves Ship Positions

Sanar-5

Last reported at 2018-Jan-21 10:55 UTC. Time now 2018-Jan-21 14:49 UTC.
Position N 45°15' E 036°27'.

Length 140 m; draft 3.4 m.

Type: Ship. MMSI: 273350860.

Date/timePositionNaut miles runAvg speedWind from/ knotsBaromVisibWave heightAir tempDewpointWater temp
2018-Jan-21 10:55N 45°15' E 036°27'0 0.0
2018-Jan-21 10:28N 45°15' E 036°27'0 0.0
2018-Jan-21 09:52N 45°15' E 036°27'0 0.0
2018-Jan-21 08:31N 45°15' E 036°27'0 0.2
2018-Jan-21 08:13N 45°15' E 036°27'0 0.1
2018-Jan-21 06:42N 45°15' E 036°27'0 0.0
2018-Jan-21 06:31N 45°15' E 036°27'0 0.0
2018-Jan-21 05:58N 45°15' E 036°27'0 0.0
2018-Jan-21 05:30N 45°15' E 036°27'0 0.0
2018-Jan-21 05:00N 45°15' E 036°27'0 0.0
2018-Jan-20 12:58N 45°15' E 036°27'0 0.0
2018-Jan-20 12:31N 45°15' E 036°27'0 0.0
2018-Jan-20 11:46N 45°15' E 036°27'0 0.0
2018-Jan-20 11:30N 45°15' E 036°27'0 0.0
2018-Jan-20 10:54N 45°15' E 036°27'0 0.0
2018-Jan-20 10:30N 45°15' E 036°27'0 0.0
2018-Jan-20 09:58N 45°15' E 036°27'0 0.0
2018-Jan-20 09:06N 45°15' E 036°27'0 0.0
2018-Jan-20 08:19N 45°15' E 036°27'0 0.0
2018-Jan-20 07:57N 45°15' E 036°27'0 0.0
2018-Jan-19 18:54N 45°15' E 036°27'0 0.0
2018-Jan-19 15:54N 45°15' E 036°27'0 0.0
2018-Jan-19 15:30N 45°15' E 036°27'0 0.0
2018-Jan-19 15:01N 45°15' E 036°27'0 0.0
2018-Jan-19 13:39N 45°15' E 036°27'1 3.2
2018-Jan-19 13:23N 45°16' E 036°28'3 6.4
2018-Jan-19 12:59N 45°18' E 036°29'3 6.7
2018-Jan-19 12:30N 45°19' E 036°33'4 7.4
2018-Jan-19 12:00N 45°21' E 036°38'3 6.6
2018-Jan-19 11:30N 45°24' E 036°40'3 5.5
2018-Jan-19 11:00N 45°26' E 036°40'  
Track history (hours):
 
Tides and Currents Weather Stations Pressure Air Temp Water Temp Dewpoint Dewpoint Depression Visibility Wind Speed Wind Dir Waves Ship Positions

Sanar-5

Last reported at 2018-Jan-21 10:55 UTC. Time now 2018-Jan-21 14:49 UTC.
Position N 45°15' E 036°27'.

Length 140 m; draft 3.4 m.

Type: Ship. MMSI: 273350860.

Date/timePositionNaut miles runAvg speedWind from/ knotsBaromVisibWave heightAir tempDewpointWater temp
2018-Jan-21 10:55N 45°15' E 036°27'0 0.0
2018-Jan-21 10:28N 45°15' E 036°27'0 0.0
2018-Jan-21 09:52N 45°15' E 036°27'0 0.0
2018-Jan-21 08:31N 45°15' E 036°27'0 0.2
2018-Jan-21 08:13N 45°15' E 036°27'0 0.1
2018-Jan-21 06:42N 45°15' E 036°27'0 0.0
2018-Jan-21 06:31N 45°15' E 036°27'0 0.0
2018-Jan-21 05:58N 45°15' E 036°27'0 0.0
2018-Jan-21 05:30N 45°15' E 036°27'0 0.0
2018-Jan-21 05:00N 45°15' E 036°27'0 0.0
2018-Jan-20 12:58N 45°15' E 036°27'0 0.0
2018-Jan-20 12:31N 45°15' E 036°27'0 0.0
2018-Jan-20 11:46N 45°15' E 036°27'0 0.0
2018-Jan-20 11:30N 45°15' E 036°27'0 0.0
2018-Jan-20 10:54N 45°15' E 036°27'0 0.0
2018-Jan-20 10:30N 45°15' E 036°27'0 0.0
2018-Jan-20 09:58N 45°15' E 036°27'0 0.0
2018-Jan-20 09:06N 45°15' E 036°27'0 0.0
2018-Jan-20 08:19N 45°15' E 036°27'0 0.0
2018-Jan-20 07:57N 45°15' E 036°27'0 0.0
2018-Jan-19 18:54N 45°15' E 036°27'0 0.0
2018-Jan-19 15:54N 45°15' E 036°27'0 0.0
2018-Jan-19 15:30N 45°15' E 036°27'0 0.0
2018-Jan-19 15:01N 45°15' E 036°27'0 0.0
2018-Jan-19 13:39N 45°15' E 036°27'1 3.2
2018-Jan-19 13:23N 45°16' E 036°28'3 6.4
2018-Jan-19 12:59N 45°18' E 036°29'3 6.7
2018-Jan-19 12:30N 45°19' E 036°33'4 7.4
2018-Jan-19 12:00N 45°21' E 036°38'3 6.6
2018-Jan-19 11:30N 45°24' E 036°40'3 5.5
2018-Jan-19 11:00N 45°26' E 036°40'  

Dump ship's entire track history